sensor_id;sensor_type;location;lat;lon;timestamp;pressure;altitude;pressure_sealevel;temperature;humidity
48204;BME280;33994;50.998;5.864;2023-01-29T00:01:21;102575.13;;;-2.43;86.97
48204;BME280;33994;50.998;5.864;2023-01-29T00:04:24;102564.88;;;-2.43;87.12
48204;BME280;33994;50.998;5.864;2023-01-29T00:07:28;102563.31;;;-2.41;86.76
48204;BME280;33994;50.998;5.864;2023-01-29T00:10:32;102562.31;;;-2.43;86.84
48204;BME280;33994;50.998;5.864;2023-01-29T00:13:35;102561.34;;;-2.45;86.78
48204;BME280;33994;50.998;5.864;2023-01-29T00:16:38;102557.56;;;-2.50;86.68
48204;BME280;33994;50.998;5.864;2023-01-29T00:19:41;102555.59;;;-2.54;86.61
48204;BME280;33994;50.998;5.864;2023-01-29T00:22:44;102551.34;;;-2.54;86.97
48204;BME280;33994;50.998;5.864;2023-01-29T00:25:48;102543.59;;;-2.55;86.95
48204;BME280;33994;50.998;5.864;2023-01-29T00:28:51;102541.91;;;-2.55;86.70
48204;BME280;33994;50.998;5.864;2023-01-29T00:31:54;102547.81;;;-2.56;86.88
48204;BME280;33994;50.998;5.864;2023-01-29T00:34:58;102541.09;;;-2.54;86.93
48204;BME280;33994;50.998;5.864;2023-01-29T00:38:00;102530.66;;;-2.57;86.90
48204;BME280;33994;50.998;5.864;2023-01-29T00:41:06;102529.78;;;-2.57;86.92
48204;BME280;33994;50.998;5.864;2023-01-29T00:44:09;102529.78;;;-2.57;86.83
48204;BME280;33994;50.998;5.864;2023-01-29T00:47:12;102528.00;;;-2.58;86.97
48204;BME280;33994;50.998;5.864;2023-01-29T00:50:15;102532.03;;;-2.62;86.94
48204;BME280;33994;50.998;5.864;2023-01-29T00:53:19;102535.47;;;-2.61;86.90
48204;BME280;33994;50.998;5.864;2023-01-29T00:56:23;102526.91;;;-2.62;86.92
48204;BME280;33994;50.998;5.864;2023-01-29T00:59:27;102530.34;;;-2.61;87.10
48204;BME280;33994;50.998;5.864;2023-01-29T01:02:30;102531.81;;;-2.65;86.84
48204;BME280;33994;50.998;5.864;2023-01-29T01:05:33;102529.19;;;-2.66;87.07
48204;BME280;33994;50.998;5.864;2023-01-29T01:08:36;102538.75;;;-2.64;87.19
48204;BME280;33994;50.998;5.864;2023-01-29T01:11:40;102538.03;;;-2.61;86.96
48204;BME280;33994;50.998;5.864;2023-01-29T01:14:43;102541.59;;;-2.59;86.90
48204;BME280;33994;50.998;5.864;2023-01-29T01:17:46;102531.94;;;-2.63;86.87
48204;BME280;33994;50.998;5.864;2023-01-29T01:20:49;102533.41;;;-2.67;86.99
48204;BME280;33994;50.998;5.864;2023-01-29T01:23:52;102536.06;;;-2.65;87.07
48204;BME280;33994;50.998;5.864;2023-01-29T01:26:56;102520.69;;;-2.65;86.90
48204;BME280;33994;50.998;5.864;2023-01-29T01:29:59;102515.19;;;-2.72;87.14
48204;BME280;33994;50.998;5.864;2023-01-29T01:33:03;102516.06;;;-2.71;87.05
48204;BME280;33994;50.998;5.864;2023-01-29T01:36:06;102507.31;;;-2.75;87.11
48204;BME280;33994;50.998;5.864;2023-01-29T01:39:10;102508.06;;;-2.76;87.24
48204;BME280;33994;50.998;5.864;2023-01-29T01:42:14;102496.63;;;-2.81;87.39
48204;BME280;33994;50.998;5.864;2023-01-29T01:45:20;102497.22;;;-2.85;87.51
48204;BME280;33994;50.998;5.864;2023-01-29T01:48:26;102508.84;;;-2.90;87.61
48204;BME280;33994;50.998;5.864;2023-01-29T01:51:31;102508.84;;;-2.90;87.70
48204;BME280;33994;50.998;5.864;2023-01-29T01:54:35;102509.72;;;-2.89;87.84
48204;BME280;33994;50.998;5.864;2023-01-29T01:57:40;102513.19;;;-2.89;87.90
48204;BME280;33994;50.998;5.864;2023-01-29T02:00:45;102520.84;;;-2.89;87.81
48204;BME280;33994;50.998;5.864;2023-01-29T02:03:54;102515.72;;;-2.89;87.67
48204;BME280;33994;50.998;5.864;2023-01-29T02:07:00;102511.41;;;-2.90;87.62
48204;BME280;33994;50.998;5.864;2023-01-29T02:10:08;102519.31;;;-2.87;87.87
48204;BME280;33994;50.998;5.864;2023-01-29T02:13:14;102522.63;;;-2.88;87.82
48204;BME280;33994;50.998;5.864;2023-01-29T02:16:18;102517.50;;;-2.88;87.89
48204;BME280;33994;50.998;5.864;2023-01-29T02:19:37;102513.19;;;-2.89;87.63
48204;BME280;33994;50.998;5.864;2023-01-29T02:23:04;102519.75;;;-2.92;87.68
48204;BME280;33994;50.998;5.864;2023-01-29T02:26:24;102535.78;;;-2.95;87.91
48204;BME280;33994;50.998;5.864;2023-01-29T02:29:38;102534.81;;;-2.97;87.97
48204;BME280;33994;50.998;5.864;2023-01-29T02:32:50;102535.41;;;-3.01;87.87
48204;BME280;33994;50.998;5.864;2023-01-29T02:35:58;102539.81;;;-2.99;88.07
48204;BME280;33994;50.998;5.864;2023-01-29T02:39:13;102541.03;;;-2.93;87.88
48204;BME280;33994;50.998;5.864;2023-01-29T02:42:24;102543.81;;;-2.90;87.96
48204;BME280;33994;50.998;5.864;2023-01-29T02:45:33;102546.25;;;-2.92;87.85
48204;BME280;33994;50.998;5.864;2023-01-29T02:48:40;102540.16;;;-2.94;87.52
48204;BME280;33994;50.998;5.864;2023-01-29T02:51:48;102541.84;;;-2.94;87.90
48204;BME280;33994;50.998;5.864;2023-01-29T02:54:57;102558.97;;;-2.93;87.75
48204;BME280;33994;50.998;5.864;2023-01-29T02:58:08;102552.16;;;-2.93;87.82
48204;BME280;33994;50.998;5.864;2023-01-29T03:01:17;102550.41;;;-2.94;87.78
48204;BME280;33994;50.998;5.864;2023-01-29T03:04:26;102541.34;;;-2.89;87.69
48204;BME280;33994;50.998;5.864;2023-01-29T03:07:34;102543.09;;;-2.88;87.62
48204;BME280;33994;50.998;5.864;2023-01-29T03:10:42;102532.56;;;-2.92;87.81
48204;BME280;33994;50.998;5.864;2023-01-29T03:13:49;102537.69;;;-2.92;87.84
48204;BME280;33994;50.998;5.864;2023-01-29T03:16:56;102533.34;;;-2.93;87.88
48204;BME280;33994;50.998;5.864;2023-01-29T03:20:00;102539.16;;;-2.96;87.91
48204;BME280;33994;50.998;5.864;2023-01-29T03:23:09;102543.19;;;-3.00;88.07
48204;BME280;33994;50.998;5.864;2023-01-29T03:26:14;102544.06;;;-2.99;87.98
48204;BME280;33994;50.998;5.864;2023-01-29T03:29:18;102539.72;;;-3.00;88.09
48204;BME280;33994;50.998;5.864;2023-01-29T03:32:24;102538.94;;;-2.99;88.11
48204;BME280;33994;50.998;5.864;2023-01-29T03:35:30;102539.16;;;-2.96;88.00
48204;BME280;33994;50.998;5.864;2023-01-29T03:38:36;102544.28;;;-2.96;87.98
48204;BME280;33994;50.998;5.864;2023-01-29T03:41:42;102554.28;;;-2.99;88.08
48204;BME280;33994;50.998;5.864;2023-01-29T03:44:54;102547.50;;;-2.99;88.15
48204;BME280;33994;50.998;5.864;2023-01-29T03:48:05;102548.50;;;-2.97;88.35
48204;BME280;33994;50.998;5.864;2023-01-29T03:51:16;102552.75;;;-2.97;88.15
48204;BME280;33994;50.998;5.864;2023-01-29T03:54:28;102533.34;;;-2.93;88.12
48204;BME280;33994;50.998;5.864;2023-01-29T03:57:38;102534.44;;;-2.90;88.00
48204;BME280;33994;50.998;5.864;2023-01-29T04:00:51;102531.09;;;-2.89;87.86
48204;BME280;33994;50.998;5.864;2023-01-29T04:04:01;102533.66;;;-2.89;87.96
48204;BME280;33994;50.998;5.864;2023-01-29T04:07:09;102522.53;;;-2.89;87.93
48204;BME280;33994;50.998;5.864;2023-01-29T04:10:15;102531.69;;;-2.93;87.91
48204;BME280;33994;50.998;5.864;2023-01-29T04:13:20;102523.78;;;-2.96;88.06
48204;BME280;33994;50.998;5.864;2023-01-29T04:16:27;102518.00;;;-2.93;88.43
48204;BME280;33994;50.998;5.864;2023-01-29T04:19:34;102516.22;;;-2.94;87.92
48204;BME280;33994;50.998;5.864;2023-01-29T04:22:38;102505.28;;;-2.92;88.12
48204;BME280;33994;50.998;5.864;2023-01-29T04:25:44;102497.72;;;-2.90;88.09
48204;BME280;33994;50.998;5.864;2023-01-29T04:28:57;102489.03;;;-2.92;88.18
48204;BME280;33994;50.998;5.864;2023-01-29T04:32:08;102493.38;;;-2.91;88.20
48204;BME280;33994;50.998;5.864;2023-01-29T04:35:25;102485.50;;;-2.94;88.16
48204;BME280;33994;50.998;5.864;2023-01-29T04:38:44;102477.25;;;-2.90;88.13
48204;BME280;33994;50.998;5.864;2023-01-29T04:41:54;102479.97;;;-2.87;87.98
48204;BME280;33994;50.998;5.864;2023-01-29T04:45:10;102472.22;;;-2.89;88.00
48204;BME280;33994;50.998;5.864;2023-01-29T04:48:21;102467.00;;;-2.90;88.16
48204;BME280;33994;50.998;5.864;2023-01-29T04:51:33;102466.09;;;-2.91;88.24
48204;BME280;33994;50.998;5.864;2023-01-29T04:54:49;102474.78;;;-2.89;88.25
48204;BME280;33994;50.998;5.864;2023-01-29T04:58:03;102473.38;;;-2.84;88.14
48204;BME280;33994;50.998;5.864;2023-01-29T05:01:10;102459.03;;;-2.82;88.34
48204;BME280;33994;50.998;5.864;2023-01-29T05:04:17;102462.66;;;-2.78;88.09
48204;BME280;33994;50.998;5.864;2023-01-29T05:07:23;102461.97;;;-2.76;87.82
48204;BME280;33994;50.998;5.864;2023-01-29T05:10:28;102464.72;;;-2.73;87.92
48204;BME280;33994;50.998;5.864;2023-01-29T05:13:33;102470.84;;;-2.70;87.76
48204;BME280;33994;50.998;5.864;2023-01-29T05:16:41;102465.81;;;-2.69;87.78
48204;BME280;33994;50.998;5.864;2023-01-29T05:19:46;102472.03;;;-2.65;87.86
48204;BME280;33994;50.998;5.864;2023-01-29T05:22:51;102465.22;;;-2.65;87.70
48204;BME280;33994;50.998;5.864;2023-01-29T05:25:55;102464.75;;;-2.59;87.57
48204;BME280;33994;50.998;5.864;2023-01-29T05:28:58;102457.66;;;-2.50;87.57
48204;BME280;33994;50.998;5.864;2023-01-29T05:32:01;102460.41;;;-2.47;87.18
48204;BME280;33994;50.998;5.864;2023-01-29T05:35:05;102465.34;;;-2.50;87.14
48204;BME280;33994;50.998;5.864;2023-01-29T05:38:10;102456.97;;;-2.48;87.26
48204;BME280;33994;50.998;5.864;2023-01-29T05:41:13;102459.81;;;-2.43;87.08
48204;BME280;33994;50.998;5.864;2023-01-29T05:44:16;102458.25;;;-2.41;87.02
48204;BME280;33994;50.998;5.864;2023-01-29T05:47:19;102454.91;;;-2.40;86.81
48204;BME280;33994;50.998;5.864;2023-01-29T05:50:23;102454.28;;;-2.36;86.89
48204;BME280;33994;50.998;5.864;2023-01-29T05:53:29;102449.97;;;-2.37;86.64
48204;BME280;33994;50.998;5.864;2023-01-29T05:56:32;102448.16;;;-2.38;87.05
48204;BME280;33994;50.998;5.864;2023-01-29T05:59:35;102441.41;;;-2.37;86.64
48204;BME280;33994;50.998;5.864;2023-01-29T06:02:38;102439.88;;;-2.34;86.78
48204;BME280;33994;50.998;5.864;2023-01-29T06:05:41;102431.31;;;-2.34;86.99
48204;BME280;33994;50.998;5.864;2023-01-29T06:08:46;102439.13;;;-2.33;86.74
48204;BME280;33994;50.998;5.864;2023-01-29T06:11:49;102454.69;;;-2.30;86.65
48204;BME280;33994;50.998;5.864;2023-01-29T06:14:52;102464.22;;;-2.27;86.53
48204;BME280;33994;50.998;5.864;2023-01-29T06:17:55;102466.72;;;-2.29;86.76
48204;BME280;33994;50.998;5.864;2023-01-29T06:21:02;102466.78;;;-2.27;86.36
48204;BME280;33994;50.998;5.864;2023-01-29T06:24:07;102465.22;;;-2.25;86.31
48204;BME280;33994;50.998;5.864;2023-01-29T06:27:11;102468.69;;;-2.25;86.53
48204;BME280;33994;50.998;5.864;2023-01-29T06:30:14;102475.78;;;-2.20;86.30
48204;BME280;33994;50.998;5.864;2023-01-29T06:33:17;102485.44;;;-2.16;86.38
48204;BME280;33994;50.998;5.864;2023-01-29T06:36:20;102492.44;;;-2.14;86.13
48204;BME280;33994;50.998;5.864;2023-01-29T06:39:25;102507.09;;;-2.11;86.25
48204;BME280;33994;50.998;5.864;2023-01-29T06:42:28;102507.31;;;-2.08;86.00
48204;BME280;33994;50.998;5.864;2023-01-29T06:45:31;102521.19;;;-2.05;85.77
48204;BME280;33994;50.998;5.864;2023-01-29T06:48:34;102513.59;;;-2.03;85.89
48204;BME280;33994;50.998;5.864;2023-01-29T06:51:37;102497.25;;;-2.05;85.81
48204;BME280;33994;50.998;5.864;2023-01-29T06:54:42;102497.25;;;-2.05;85.83
48204;BME280;33994;50.998;5.864;2023-01-29T06:57:44;102500.78;;;-2.03;85.59
48204;BME280;33994;50.998;5.864;2023-01-29T07:00:47;102495.66;;;-2.03;85.68
48204;BME280;33994;50.998;5.864;2023-01-29T07:03:51;102490.34;;;-2.06;85.62
48204;BME280;33994;50.998;5.864;2023-01-29T07:06:54;102480.38;;;-2.02;85.50
48204;BME280;33994;50.998;5.864;2023-01-29T07:09:58;102472.78;;;-2.00;85.57
48204;BME280;33994;50.998;5.864;2023-01-29T07:13:01;102473.66;;;-2.00;85.45
48204;BME280;33994;50.998;5.864;2023-01-29T07:16:04;102465.06;;;-2.00;85.62
48204;BME280;33994;50.998;5.864;2023-01-29T07:19:08;102468.44;;;-2.01;85.18
48204;BME280;33994;50.998;5.864;2023-01-29T07:22:10;102479.78;;;-1.98;85.58
48204;BME280;33994;50.998;5.864;2023-01-29T07:25:15;102463.50;;;-1.98;85.35
48204;BME280;33994;50.998;5.864;2023-01-29T07:28:18;102467.03;;;-1.96;85.29
48204;BME280;33994;50.998;5.864;2023-01-29T07:31:22;102473.75;;;-1.98;84.97
48204;BME280;33994;50.998;5.864;2023-01-29T07:34:25;102466.44;;;-1.92;85.31
48204;BME280;33994;50.998;5.864;2023-01-29T07:37:28;102457.97;;;-1.91;84.95
48204;BME280;33994;50.998;5.864;2023-01-29T07:40:32;102465.13;;;-1.85;85.08
48204;BME280;33994;50.998;5.864;2023-01-29T07:43:36;102473.84;;;-1.83;85.04
48204;BME280;33994;50.998;5.864;2023-01-29T07:46:39;102473.22;;;-1.79;85.10
48204;BME280;33994;50.998;5.864;2023-01-29T07:49:42;102471.53;;;-1.79;84.84
48204;BME280;33994;50.998;5.864;2023-01-29T07:52:45;102468.38;;;-1.75;84.54
48204;BME280;33994;50.998;5.864;2023-01-29T07:55:49;102468.19;;;-1.78;84.46
48204;BME280;33994;50.998;5.864;2023-01-29T07:58:53;102458.78;;;-1.77;84.42
48204;BME280;33994;50.998;5.864;2023-01-29T08:01:56;102470.84;;;-1.76;84.87
48204;BME280;33994;50.998;5.864;2023-01-29T08:04:59;102472.50;;;-1.77;84.45
48204;BME280;33994;50.998;5.864;2023-01-29T08:08:01;102458.38;;;-1.70;84.53
48204;BME280;33994;50.998;5.864;2023-01-29T08:11:07;102458.56;;;-1.67;84.48
48204;BME280;33994;50.998;5.864;2023-01-29T08:14:10;102459.72;;;-1.62;83.99
48204;BME280;33994;50.998;5.864;2023-01-29T08:17:13;102451.88;;;-1.65;84.00
48204;BME280;33994;50.998;5.864;2023-01-29T08:20:17;102453.72;;;-1.62;84.30
48204;BME280;33994;50.998;5.864;2023-01-29T08:23:20;102460.72;;;-1.60;84.22
48204;BME280;33994;50.998;5.864;2023-01-29T08:26:24;102466.03;;;-1.57;84.28
48204;BME280;33994;50.998;5.864;2023-01-29T08:29:27;102470.56;;;-1.53;84.23
48204;BME280;33994;50.998;5.864;2023-01-29T08:32:30;102467.19;;;-1.52;83.89
48204;BME280;33994;50.998;5.864;2023-01-29T08:35:33;102462.94;;;-1.51;83.91
48204;BME280;33994;50.998;5.864;2023-01-29T08:38:36;102469.06;;;-1.49;84.38
48204;BME280;33994;50.998;5.864;2023-01-29T08:41:41;102470.22;;;-1.44;83.88
48204;BME280;33994;50.998;5.864;2023-01-29T08:44:44;102463.69;;;-1.39;83.64
48204;BME280;33994;50.998;5.864;2023-01-29T08:47:48;102481.94;;;-1.34;83.57
48204;BME280;33994;50.998;5.864;2023-01-29T08:50:51;102479.47;;;-1.33;83.50
48204;BME280;33994;50.998;5.864;2023-01-29T08:53:54;102477.69;;;-1.34;83.81
48204;BME280;33994;50.998;5.864;2023-01-29T08:56:59;102477.69;;;-1.34;83.89
48204;BME280;33994;50.998;5.864;2023-01-29T09:00:02;102470.06;;;-1.32;83.43
48204;BME280;33994;50.998;5.864;2023-01-29T09:03:06;102459.00;;;-1.31;83.56
48204;BME280;33994;50.998;5.864;2023-01-29T09:06:11;102449.72;;;-1.29;83.26
48204;BME280;33994;50.998;5.864;2023-01-29T09:09:15;102443.97;;;-1.25;83.58
48204;BME280;33994;50.998;5.864;2023-01-29T09:12:19;102430.44;;;-1.22;83.47
48204;BME280;33994;50.998;5.864;2023-01-29T09:15:22;102419.97;;;-1.26;83.91
48204;BME280;33994;50.998;5.864;2023-01-29T09:18:26;102426.97;;;-1.23;83.71
48204;BME280;33994;50.998;5.864;2023-01-29T09:21:29;102434.06;;;-1.19;84.22
48204;BME280;33994;50.998;5.864;2023-01-29T09:24:32;102428.59;;;-1.10;83.34
48204;BME280;33994;50.998;5.864;2023-01-29T09:27:37;102426.97;;;-1.08;83.67
48204;BME280;33994;50.998;5.864;2023-01-29T09:30:40;102424.59;;;-1.05;83.44
48204;BME280;33994;50.998;5.864;2023-01-29T09:33:43;102422.38;;;-0.99;83.11
48204;BME280;33994;50.998;5.864;2023-01-29T09:36:46;102425.13;;;-0.96;83.32
48204;BME280;33994;50.998;5.864;2023-01-29T09:39:49;102409.97;;;-0.91;83.06
48204;BME280;33994;50.998;5.864;2023-01-29T09:42:57;102406.69;;;-0.89;83.05
48204;BME280;33994;50.998;5.864;2023-01-29T09:46:05;102401.66;;;-0.87;82.80
48204;BME280;33994;50.998;5.864;2023-01-29T09:49:14;102398.38;;;-0.85;83.00
48204;BME280;33994;50.998;5.864;2023-01-29T09:52:23;102397.00;;;-0.78;82.91
48204;BME280;33994;50.998;5.864;2023-01-29T09:55:29;102404.38;;;-0.69;82.76
48204;BME280;33994;50.998;5.864;2023-01-29T09:58:37;102395.22;;;-0.64;82.90
48204;BME280;33994;50.998;5.864;2023-01-29T10:01:48;102399.75;;;-0.60;82.66
48204;BME280;33994;50.998;5.864;2023-01-29T10:05:06;102398.13;;;-0.58;82.64
48204;BME280;33994;50.998;5.864;2023-01-29T10:08:32;102407.88;;;-0.53;82.20
48204;BME280;33994;50.998;5.864;2023-01-29T10:11:44;102400.41;;;-0.48;82.27
48204;BME280;33994;50.998;5.864;2023-01-29T10:14:55;102400.94;;;-0.39;82.00
48204;BME280;33994;50.998;5.864;2023-01-29T10:18:19;102390.16;;;-0.32;81.54
48204;BME280;33994;50.998;5.864;2023-01-29T10:21:35;102390.44;;;-0.27;81.00
48204;BME280;33994;50.998;5.864;2023-01-29T10:24:48;102385.06;;;-0.15;81.64
48204;BME280;33994;50.998;5.864;2023-01-29T10:27:57;102389.47;;;-0.13;80.87
48204;BME280;33994;50.998;5.864;2023-01-29T10:31:04;102376.53;;;-0.14;81.16
48204;BME280;33994;50.998;5.864;2023-01-29T10:34:12;102379.91;;;-0.15;80.84
48204;BME280;33994;50.998;5.864;2023-01-29T10:37:17;102370.41;;;-0.16;81.01
48204;BME280;33994;50.998;5.864;2023-01-29T10:40:21;102371.38;;;-0.14;81.02
48204;BME280;33994;50.998;5.864;2023-01-29T10:43:29;102371.44;;;-0.13;81.15
48204;BME280;33994;50.998;5.864;2023-01-29T10:46:52;102375.06;;;-0.09;81.02
48204;BME280;33994;50.998;5.864;2023-01-29T10:50:11;102372.50;;;-0.09;80.73
48204;BME280;33994;50.998;5.864;2023-01-29T10:53:27;102371.09;;;-0.04;80.59
48204;BME280;33994;50.998;5.864;2023-01-29T10:56:47;102375.59;;;0.00;80.90
48204;BME280;33994;50.998;5.864;2023-01-29T11:00:01;102372.19;;;0.01;80.62
48204;BME280;33994;50.998;5.864;2023-01-29T11:03:14;102367.22;;;0.04;80.74
48204;BME280;33994;50.998;5.864;2023-01-29T11:06:21;102360.53;;;0.08;80.24
48204;BME280;33994;50.998;5.864;2023-01-29T11:09:29;102343.59;;;0.11;80.42
48204;BME280;33994;50.998;5.864;2023-01-29T11:12:34;102346.22;;;0.13;80.29
48204;BME280;33994;50.998;5.864;2023-01-29T11:15:38;102340.19;;;0.12;80.37
48204;BME280;33994;50.998;5.864;2023-01-29T11:18:53;102331.13;;;0.19;80.26
48204;BME280;33994;50.998;5.864;2023-01-29T11:21:58;102328.78;;;0.24;80.30
48204;BME280;33994;50.998;5.864;2023-01-29T11:25:14;102332.28;;;0.26;79.85
48204;BME280;33994;50.998;5.864;2023-01-29T11:28:34;102332.28;;;0.26;79.95
48204;BME280;33994;50.998;5.864;2023-01-29T11:31:38;102326.25;;;0.25;80.14
48204;BME280;33994;50.998;5.864;2023-01-29T11:35:03;102316.19;;;0.30;79.49
48204;BME280;33994;50.998;5.864;2023-01-29T11:38:17;102329.22;;;0.33;79.40
48204;BME280;33994;50.998;5.864;2023-01-29T11:41:20;102313.22;;;0.38;79.97
48204;BME280;33994;50.998;5.864;2023-01-29T11:44:31;102309.13;;;0.42;79.47
48204;BME280;33994;50.998;5.864;2023-01-29T11:47:34;102305.56;;;0.40;79.68
48204;BME280;33994;50.998;5.864;2023-01-29T11:50:39;102284.91;;;0.38;79.25
48204;BME280;33994;50.998;5.864;2023-01-29T11:53:43;102284.97;;;0.40;79.91
48204;BME280;33994;50.998;5.864;2023-01-29T11:56:48;102278.94;;;0.39;79.32
48204;BME280;33994;50.998;5.864;2023-01-29T11:59:53;102274.69;;;0.40;79.34
48204;BME280;33994;50.998;5.864;2023-01-29T12:03:03;102267.06;;;0.41;79.44
48204;BME280;33994;50.998;5.864;2023-01-29T12:06:17;102260.22;;;0.42;79.02
48204;BME280;33994;50.998;5.864;2023-01-29T12:09:22;102252.59;;;0.45;78.94
48204;BME280;33994;50.998;5.864;2023-01-29T12:12:36;102242.47;;;0.48;79.06
48204;BME280;33994;50.998;5.864;2023-01-29T12:15:42;102232.31;;;0.51;79.30
48204;BME280;33994;50.998;5.864;2023-01-29T12:18:48;102231.59;;;0.54;79.08
48204;BME280;33994;50.998;5.864;2023-01-29T12:21:58;102228.28;;;0.56;78.69
48204;BME280;33994;50.998;5.864;2023-01-29T12:25:06;102219.75;;;0.57;79.16
48204;BME280;33994;50.998;5.864;2023-01-29T12:28:25;102205.09;;;0.56;79.01
48204;BME280;33994;50.998;5.864;2023-01-29T12:31:37;102194.81;;;0.56;79.33
48204;BME280;33994;50.998;5.864;2023-01-29T12:34:48;102180.75;;;0.67;79.07
48204;BME280;33994;50.998;5.864;2023-01-29T12:37:57;102179.88;;;0.67;78.71
48204;BME280;33994;50.998;5.864;2023-01-29T12:41:05;102173.25;;;0.72;79.12
48204;BME280;33994;50.998;5.864;2023-01-29T12:44:13;102169.19;;;0.77;78.90
48204;BME280;33994;50.998;5.864;2023-01-29T12:47:23;102151.09;;;0.76;78.88
48204;BME280;33994;50.998;5.864;2023-01-29T12:50:32;102141.69;;;0.76;78.66
48204;BME280;33994;50.998;5.864;2023-01-29T12:53:41;102139.16;;;0.78;78.56
48204;BME280;33994;50.998;5.864;2023-01-29T12:56:47;102134.38;;;0.85;79.03
48204;BME280;33994;50.998;5.864;2023-01-29T12:59:55;102130.97;;;0.86;78.69
48204;BME280;33994;50.998;5.864;2023-01-29T13:03:00;102123.38;;;0.89;78.66
48204;BME280;33994;50.998;5.864;2023-01-29T13:06:08;102124.34;;;0.91;78.62
48204;BME280;33994;50.998;5.864;2023-01-29T13:09:16;102120.28;;;0.97;79.10
48204;BME280;33994;50.998;5.864;2023-01-29T13:12:22;102105.22;;;1.06;78.44
48204;BME280;33994;50.998;5.864;2023-01-29T13:15:29;102100.19;;;1.09;78.27
48204;BME280;33994;50.998;5.864;2023-01-29T13:18:39;102088.34;;;1.12;78.37
48204;BME280;33994;50.998;5.864;2023-01-29T13:21:44;102074.72;;;1.15;78.40
48204;BME280;33994;50.998;5.864;2023-01-29T13:24:49;102061.06;;;1.17;78.57
48204;BME280;33994;50.998;5.864;2023-01-29T13:27:52;102056.03;;;1.20;78.35
48204;BME280;33994;50.998;5.864;2023-01-29T13:31:11;102072.47;;;1.23;78.24
48204;BME280;33994;50.998;5.864;2023-01-29T13:34:19;102081.25;;;1.28;78.43
48204;BME280;33994;50.998;5.864;2023-01-29T13:37:28;102093.47;;;1.32;78.36
48204;BME280;33994;50.998;5.864;2023-01-29T13:40:34;102093.75;;;1.38;78.29
48204;BME280;33994;50.998;5.864;2023-01-29T13:43:39;102107.56;;;1.40;78.08
48204;BME280;33994;50.998;5.864;2023-01-29T13:46:48;102106.00;;;1.43;77.99
48204;BME280;33994;50.998;5.864;2023-01-29T13:49:54;102102.53;;;1.43;77.93
48204;BME280;33994;50.998;5.864;2023-01-29T13:53:00;102100.84;;;1.43;78.19
48204;BME280;33994;50.998;5.864;2023-01-29T13:56:39;102090.63;;;1.45;78.02
48204;BME280;33994;50.998;5.864;2023-01-29T13:59:50;102095.81;;;1.47;78.11
48204;BME280;33994;50.998;5.864;2023-01-29T14:06:37;102095.28;;;1.54;77.97
48204;BME280;33994;50.998;5.864;2023-01-29T14:10:00;102085.09;;;1.57;78.04
48204;BME280;33994;50.998;5.864;2023-01-29T14:13:35;102080.81;;;1.57;78.05
48204;BME280;33994;50.998;5.864;2023-01-29T14:16:38;102089.47;;;1.59;78.37
48204;BME280;33994;50.998;5.864;2023-01-29T14:19:46;102081.00;;;1.62;78.12
48204;BME280;33994;50.998;5.864;2023-01-29T14:22:52;102081.69;;;1.58;78.00
48204;BME280;33994;50.998;5.864;2023-01-29T14:25:58;102077.50;;;1.60;78.16
48204;BME280;33994;50.998;5.864;2023-01-29T14:29:12;102083.66;;;1.63;77.93
48204;BME280;33994;50.998;5.864;2023-01-29T14:32:19;102073.53;;;1.68;77.80
48204;BME280;33994;50.998;5.864;2023-01-29T14:35:24;102064.09;;;1.68;77.60
48204;BME280;33994;50.998;5.864;2023-01-29T14:38:29;102071.00;;;1.69;77.44
48204;BME280;33994;50.998;5.864;2023-01-29T14:41:34;102064.09;;;1.68;77.62
48204;BME280;33994;50.998;5.864;2023-01-29T14:44:56;102071.00;;;1.69;77.12
48204;BME280;33994;50.998;5.864;2023-01-29T14:48:13;102072.69;;;1.69;77.28
48204;BME280;33994;50.998;5.864;2023-01-29T14:51:21;102064.13;;;1.70;77.27
48204;BME280;33994;50.998;5.864;2023-01-29T14:54:27;102072.66;;;1.67;77.60
48204;BME280;33994;50.998;5.864;2023-01-29T14:57:34;102069.16;;;1.67;77.50
48204;BME280;33994;50.998;5.864;2023-01-29T15:00:42;102071.75;;;1.67;77.35
48204;BME280;33994;50.998;5.864;2023-01-29T15:03:48;102073.53;;;1.68;77.39
48204;BME280;33994;50.998;5.864;2023-01-29T15:06:56;102074.53;;;1.72;77.56
48204;BME280;33994;50.998;5.864;2023-01-29T15:10:03;102073.56;;;1.69;77.62
48204;BME280;33994;50.998;5.864;2023-01-29T15:13:13;102068.41;;;1.69;77.70
48204;BME280;33994;50.998;5.864;2023-01-29T15:16:23;102059.94;;;1.72;77.75
48204;BME280;33994;50.998;5.864;2023-01-29T15:19:27;102048.75;;;1.72;77.36
48204;BME280;33994;50.998;5.864;2023-01-29T15:22:41;102061.50;;;1.68;77.84
48204;BME280;33994;50.998;5.864;2023-01-29T15:25:47;102052.94;;;1.69;77.92
48204;BME280;33994;50.998;5.864;2023-01-29T15:28:53;102051.25;;;1.70;77.76
48204;BME280;33994;50.998;5.864;2023-01-29T15:31:58;102040.91;;;1.70;77.82
48204;BME280;33994;50.998;5.864;2023-01-29T15:35:06;102030.56;;;1.68;77.74
48204;BME280;33994;50.998;5.864;2023-01-29T15:38:15;102029.72;;;1.69;77.69
48204;BME280;33994;50.998;5.864;2023-01-29T15:41:20;102033.13;;;1.68;77.95
48204;BME280;33994;50.998;5.864;2023-01-29T15:44:23;102032.19;;;1.66;77.77
48204;BME280;33994;50.998;5.864;2023-01-29T15:47:30;102018.34;;;1.64;77.83
48204;BME280;33994;50.998;5.864;2023-01-29T15:50:36;102016.59;;;1.63;77.94
48204;BME280;33994;50.998;5.864;2023-01-29T15:53:43;102022.88;;;1.70;77.69
48204;BME280;33994;50.998;5.864;2023-01-29T15:56:50;102011.81;;;1.73;77.38
48204;BME280;33994;50.998;5.864;2023-01-29T15:59:56;102003.94;;;1.69;77.28
48204;BME280;33994;50.998;5.864;2023-01-29T16:03:12;102003.88;;;1.68;77.19
48204;BME280;33994;50.998;5.864;2023-01-29T16:06:15;101997.06;;;1.70;77.07
48204;BME280;33994;50.998;5.864;2023-01-29T16:09:20;101991.03;;;1.69;76.99
48204;BME280;33994;50.998;5.864;2023-01-29T16:12:24;101991.00;;;1.68;77.27
48204;BME280;33994;50.998;5.864;2023-01-29T16:15:30;101993.50;;;1.66;76.89
48204;BME280;33994;50.998;5.864;2023-01-29T16:18:37;101988.34;;;1.66;77.08
48204;BME280;33994;50.998;5.864;2023-01-29T16:21:42;101993.56;;;1.68;77.05
48204;BME280;33994;50.998;5.864;2023-01-29T16:24:46;102004.81;;;1.70;77.33